Time;durP1;ratioP1;P1;durP2;ratioP2;P2;SDS_P1;SDS_P2;PMS_P1;PMS_P2;Temp;Humidity;BMP_temperature;BMP_pressure;BME280_temperature;BME280_humidity;BME280_pressure;Samples;Min_cycle;Max_cycle;Signal;HPM_P1;HPM_P2
2021/08/17 00:01:47;;;;;;;0.00;0.00;;;13.70;99.90;;;;;;4849767;29;20136;-82
2021/08/17 00:04:14;;;;;;;0.10;0.10;;;13.70;99.90;;;;;;4865075;29;20045;-84
2021/08/17 00:06:40;;;;;;;0.00;0.00;;;13.70;99.90;;;;;;4864683;29;20033;-82
2021/08/17 00:09:07;;;;;;;0.00;0.00;;;13.70;99.90;;;;;;4864251;29;20053;-81
2021/08/17 00:11:34;;;;;;;0.00;0.00;;;13.70;99.90;;;;;;4864495;29;20045;-82
2021/08/17 00:14:01;;;;;;;0.00;0.00;;;14.00;99.90;;;;;;4864897;29;20046;-81
2021/08/17 00:16:28;;;;;;;0.00;0.00;;;13.70;99.90;;;;;;4864511;29;20041;-84
2021/08/17 00:18:54;;;;;;;0.00;0.00;;;13.70;99.90;;;;;;4864610;29;20094;-83
2021/08/17 00:21:21;;;;;;;0.00;0.00;;;13.60;99.90;;;;;;4864590;29;20546;-83
2021/08/17 00:23:48;;;;;;;0.00;0.00;;;13.60;99.90;;;;;;4864397;29;20501;-80
2021/08/17 00:26:15;;;;;;;0.00;0.00;;;13.60;99.90;;;;;;4864760;29;20135;-82
2021/08/17 00:28:42;;;;;;;0.00;0.00;;;13.60;99.90;;;;;;4879722;29;20120;-82
2021/08/17 00:31:09;;;;;;;0.00;0.00;;;13.60;99.90;;;;;;4864536;29;20395;-79
2021/08/17 00:33:36;;;;;;;0.00;0.00;;;13.70;99.90;;;;;;4864460;29;20406;-82
2021/08/17 00:36:04;;;;;;;0.00;0.00;;;13.70;99.90;;;;;;4879614;29;20049;-82
2021/08/17 00:38:31;;;;;;;0.00;0.00;;;13.70;99.90;;;;;;4849342;29;20049;-80
2021/08/17 00:40:58;;;;;;;0.00;0.00;;;13.70;99.90;;;;;;4864402;29;20117;-81
2021/08/17 00:43:24;;;;;;;0.00;0.00;;;13.70;99.90;;;;;;4879730;29;20120;-81
2021/08/17 00:45:52;;;;;;;0.00;0.00;;;13.70;99.90;;;;;;4864195;29;20128;-81
2021/08/17 00:48:18;;;;;;;0.00;0.00;;;13.70;99.90;;;;;;4879582;29;20042;-81
2021/08/17 00:50:46;;;;;;;0.00;0.00;;;13.70;99.90;;;;;;4864009;29;20482;-82
2021/08/17 00:53:13;;;;;;;0.00;0.00;;;13.70;99.90;;;;;;4864381;29;20048;-81
2021/08/17 00:55:41;;;;;;;0.00;0.00;;;13.70;99.90;;;;;;4863866;29;20049;-80
2021/08/17 00:58:07;;;;;;;0.00;0.00;;;13.70;99.90;;;;;;4879462;29;20070;-80
2021/08/17 01:00:35;;;;;;;0.00;0.00;;;13.70;99.90;;;;;;4863893;29;20045;-82
2021/08/17 01:03:05;;;;;;;0.00;0.00;;;13.60;99.90;;;;;;4879739;29;20052;-81
2021/08/17 01:05:32;;;;;;;0.00;0.00;;;13.60;99.90;;;;;;4879212;29;20048;-83
2021/08/17 01:07:59;;;;;;;0.00;0.00;;;13.60;99.90;;;;;;4864371;29;20038;-80
2021/08/17 01:10:27;;;;;;;0.00;0.00;;;13.60;99.90;;;;;;4879238;29;20046;-81
2021/08/17 01:12:54;;;;;;;0.05;0.05;;;13.60;99.90;;;;;;4878890;29;20037;-81
2021/08/17 01:15:20;;;;;;;0.00;0.00;;;13.60;99.90;;;;;;4879020;29;20041;-81
2021/08/17 01:17:47;;;;;;;0.10;0.10;;;13.60;99.90;;;;;;4878805;29;20052;-81
2021/08/17 01:20:16;;;;;;;0.00;0.00;;;13.60;99.90;;;;;;4863648;29;20086;-82
2021/08/17 01:22:45;;;;;;;0.00;0.00;;;13.60;99.90;;;;;;4878567;29;20104;-80
2021/08/17 01:25:13;;;;;;;0.00;0.00;;;13.60;99.90;;;;;;4878864;29;20542;-80
2021/08/17 01:27:41;;;;;;;0.00;0.00;;;13.70;99.90;;;;;;4863609;29;20042;-83
2021/08/17 01:30:10;;;;;;;0.00;0.00;;;13.70;99.90;;;;;;4863813;29;20038;-81
2021/08/17 01:32:37;;;;;;;0.00;0.00;;;13.70;99.90;;;;;;4878870;29;20505;-83
2021/08/17 01:35:04;;;;;;;0.00;0.00;;;13.80;99.90;;;;;;4863553;29;20049;-80
2021/08/17 01:37:31;;;;;;;0.00;0.00;;;13.70;99.90;;;;;;4848424;29;20422;-82
2021/08/17 01:40:06;;;;;;;0.00;0.00;;;13.80;99.90;;;;;;4878361;29;20132;-80
2021/08/17 01:42:35;;;;;;;0.00;0.00;;;13.80;99.90;;;;;;4864155;29;20049;-80
2021/08/17 01:45:02;;;;;;;0.00;0.00;;;13.80;99.90;;;;;;4863295;29;20061;-82
2021/08/17 01:47:32;;;;;;;0.10;0.10;;;13.70;99.90;;;;;;4863485;29;20041;-82
2021/08/17 01:50:01;;;;;;;0.00;0.00;;;13.70;99.90;;;;;;4863014;29;20044;-81
2021/08/17 01:52:29;;;;;;;0.00;0.00;;;13.70;99.90;;;;;;4878429;29;20045;-81
2021/08/17 01:54:56;;;;;;;0.00;0.00;;;13.70;99.90;;;;;;4877898;29;20045;-82
2021/08/17 01:57:23;;;;;;;0.00;0.00;;;13.70;99.90;;;;;;4863245;29;20500;-83
2021/08/17 01:59:53;;;;;;;0.00;0.00;;;13.70;99.90;;;;;;4862974;29;20074;-78
2021/08/17 02:02:20;;;;;;;0.00;0.00;;;13.60;99.90;;;;;;4863263;29;20045;-79
2021/08/17 02:04:47;;;;;;;0.00;0.00;;;13.60;99.90;;;;;;4877959;29;20045;-80
2021/08/17 02:07:14;;;;;;;0.30;0.10;;;13.60;99.90;;;;;;4863097;29;20044;-80
2021/08/17 02:09:40;;;;;;;0.00;0.00;;;13.50;99.90;;;;;;4862797;29;20139;-80
2021/08/17 02:12:07;;;;;;;0.00;0.00;;;13.50;99.90;;;;;;4863152;29;20398;-80
2021/08/17 02:14:34;;;;;;;0.00;0.00;;;13.50;99.90;;;;;;4863140;29;20041;-80
2021/08/17 02:17:01;;;;;;;0.00;0.00;;;13.40;99.90;;;;;;4877715;29;20117;-80
2021/08/17 02:19:28;;;;;;;0.00;0.00;;;13.40;99.90;;;;;;4863133;29;20120;-79
2021/08/17 02:21:55;;;;;;;0.00;0.00;;;13.40;99.90;;;;;;4877644;29;20514;-80
2021/08/17 02:24:21;;;;;;;0.00;0.00;;;13.40;99.90;;;;;;4862887;29;20120;-80
2021/08/17 02:26:48;;;;;;;0.00;0.00;;;13.30;99.90;;;;;;4877796;29;20101;-79
2021/08/17 02:29:15;;;;;;;0.10;0.10;;;13.30;99.90;;;;;;4878216;29;20041;-80
2021/08/17 02:31:42;;;;;;;0.00;0.00;;;13.20;99.90;;;;;;4862812;29;20039;-82
2021/08/17 02:34:09;;;;;;;0.00;0.00;;;13.20;99.90;;;;;;4877323;29;20045;-80
2021/08/17 02:36:36;;;;;;;0.10;0.10;;;13.20;99.90;;;;;;4877777;29;20041;-83
2021/08/17 02:39:03;;;;;;;0.00;0.00;;;13.20;99.90;;;;;;4862610;29;20038;-80
2021/08/17 02:41:30;;;;;;;0.00;0.00;;;13.20;99.90;;;;;;4860828;29;20069;-80
2021/08/17 02:43:57;;;;;;;0.00;0.00;;;13.20;99.90;;;;;;4877475;29;20073;-82
2021/08/17 02:46:23;;;;;;;0.00;0.00;;;13.20;99.90;;;;;;4862915;29;20458;-78
2021/08/17 02:48:50;;;;;;;0.00;0.00;;;13.30;99.90;;;;;;4877591;29;20094;-81
2021/08/17 02:51:17;;;;;;;0.00;0.00;;;13.40;99.90;;;;;;4862442;29;20518;-82
2021/08/17 02:53:44;;;;;;;0.00;0.00;;;13.40;99.90;;;;;;4862602;29;20038;-80
2021/08/17 02:56:10;;;;;;;0.00;0.00;;;13.40;99.90;;;;;;4862249;29;20049;-83
2021/08/17 02:58:37;;;;;;;0.00;0.00;;;13.50;99.90;;;;;;4862722;29;20084;-80
2021/08/17 03:01:04;;;;;;;0.00;0.00;;;13.50;99.90;;;;;;4862258;29;20038;-82
2021/08/17 03:03:31;;;;;;;0.00;0.00;;;13.50;99.90;;;;;;4862500;29;20487;-80
2021/08/17 03:05:58;;;;;;;0.00;0.00;;;13.50;99.90;;;;;;4862207;29;20128;-80
2021/08/17 03:08:25;;;;;;;0.00;0.00;;;13.50;99.90;;;;;;4877638;29;20045;-80
2021/08/17 03:10:52;;;;;;;0.00;0.00;;;13.40;99.90;;;;;;4862368;29;20048;-80
2021/08/17 03:13:19;;;;;;;0.00;0.00;;;13.40;99.90;;;;;;4877522;29;20041;-80
2021/08/17 03:15:46;;;;;;;0.00;0.00;;;13.40;99.90;;;;;;4893893;29;20140;-80
2021/08/17 03:18:13;;;;;;;0.00;0.00;;;13.30;99.90;;;;;;4862122;29;20037;-79
2021/08/17 03:20:40;;;;;;;0.00;0.00;;;13.30;99.90;;;;;;4862389;29;20483;-81
2021/08/17 03:23:08;;;;;;;0.00;0.00;;;13.30;99.90;;;;;;4877149;29;20406;-80
2021/08/17 03:25:35;;;;;;;0.00;0.00;;;13.20;99.90;;;;;;4862355;29;20627;-80
2021/08/17 03:28:02;;;;;;;0.00;0.00;;;13.20;99.90;;;;;;4862038;29;20110;-81
2021/08/17 03:30:29;;;;;;;0.00;0.00;;;13.10;99.90;;;;;;4862347;29;20045;-80
2021/08/17 03:32:55;;;;;;;0.00;0.00;;;13.10;99.90;;;;;;4862205;29;20470;-80
2021/08/17 03:35:23;;;;;;;0.00;0.00;;;13.10;99.90;;;;;;4862106;29;20478;-80
2021/08/17 03:37:50;;;;;;;0.00;0.00;;;13.10;99.90;;;;;;4861831;29;20045;-83
2021/08/17 03:40:20;;;;;;;0.00;0.00;;;13.00;99.90;;;;;;4862179;29;20513;-81
2021/08/17 03:42:47;;;;;;;0.00;0.00;;;13.00;99.90;;;;;;4877173;29;20109;-81
2021/08/17 03:45:17;;;;;;;0.00;0.00;;;13.00;99.90;;;;;;4879742;29;20132;-82
2021/08/17 03:47:44;;;;;;;0.00;0.00;;;13.00;99.90;;;;;;4897106;29;20041;-81
2021/08/17 03:50:13;;;;;;;0.00;0.00;;;13.00;99.90;;;;;;4864974;29;20050;-81
2021/08/17 03:52:41;;;;;;;0.00;0.00;;;13.00;99.90;;;;;;4865610;29;20053;-81
2021/08/17 03:55:09;;;;;;;0.00;0.00;;;13.00;99.90;;;;;;4864825;29;20462;-80
2021/08/17 03:57:36;;;;;;;0.00;0.00;;;13.00;99.90;;;;;;4865288;29;20080;-81
2021/08/17 04:00:05;;;;;;;0.00;0.00;;;13.00;99.90;;;;;;4864929;29;20086;-81
2021/08/17 04:02:31;;;;;;;0.00;0.00;;;13.00;99.90;;;;;;4896833;29;20451;-81
2021/08/17 04:04:59;;;;;;;0.00;0.00;;;13.00;99.90;;;;;;4896464;29;20055;-82
2021/08/17 04:07:26;;;;;;;0.00;0.00;;;13.00;99.90;;;;;;4864705;29;20420;-81
2021/08/17 04:09:53;;;;;;;0.00;0.00;;;13.00;99.90;;;;;;4864571;29;20041;-81
2021/08/17 04:12:19;;;;;;;0.08;0.08;;;13.00;99.90;;;;;;4864512;29;20042;-80
2021/08/17 04:14:46;;;;;;;0.00;0.00;;;13.00;99.90;;;;;;4864723;29;20045;-79
2021/08/17 04:17:13;;;;;;;0.00;0.00;;;13.00;99.90;;;;;;4864036;29;20044;-79
2021/08/17 04:19:40;;;;;;;0.00;0.00;;;13.00;99.90;;;;;;4864341;29;20042;-79
2021/08/17 04:22:07;;;;;;;0.00;0.00;;;13.00;99.90;;;;;;4864426;29;20097;-82
2021/08/17 04:24:34;;;;;;;0.00;0.00;;;13.00;99.90;;;;;;4880090;29;20046;-78
2021/08/17 04:27:02;;;;;;;0.00;0.00;;;13.00;99.90;;;;;;4864387;29;20124;-79
2021/08/17 04:29:29;;;;;;;0.43;0.40;;;13.00;99.90;;;;;;4879960;29;20044;-81
2021/08/17 04:31:57;;;;;;;0.00;0.00;;;13.00;99.90;;;;;;4864414;29;20069;-79
2021/08/17 04:34:23;;;;;;;0.00;0.00;;;13.00;99.90;;;;;;4879717;29;20490;-82
2021/08/17 04:36:51;;;;;;;0.00;0.00;;;13.00;99.90;;;;;;4864550;29;20505;-79
2021/08/17 04:39:17;;;;;;;0.00;0.00;;;13.00;99.90;;;;;;4879437;29;20065;-79
2021/08/17 04:41:44;;;;;;;0.00;0.00;;;13.00;99.90;;;;;;4864242;29;20073;-79
2021/08/17 04:44:11;;;;;;;0.00;0.00;;;13.00;99.90;;;;;;4848989;29;20053;-81
2021/08/17 04:46:38;;;;;;;0.00;0.00;;;12.90;99.90;;;;;;4864855;29;20530;-82
2021/08/17 04:49:07;;;;;;;0.00;0.00;;;13.00;99.90;;;;;;4879276;29;20070;-79
2021/08/17 04:51:36;;;;;;;0.00;0.00;;;13.00;99.90;;;;;;4880002;29;20049;-80
2021/08/17 04:54:03;;;;;;;0.00;0.00;;;13.00;99.90;;;;;;4879174;29;20417;-81
2021/08/17 04:56:30;;;;;;;0.00;0.00;;;13.00;99.90;;;;;;4879004;29;20042;-81
2021/08/17 04:58:56;;;;;;;0.00;0.00;;;13.00;99.90;;;;;;4864194;29;20053;-82
2021/08/17 05:01:23;;;;;;;0.00;0.00;;;13.00;99.90;;;;;;4863817;29;20463;-80
2021/08/17 05:03:50;;;;;;;0.00;0.00;;;13.10;99.90;;;;;;4864282;29;20045;-82
2021/08/17 05:06:17;;;;;;;0.00;0.00;;;13.00;99.90;;;;;;4863823;29;20387;-82
2021/08/17 05:08:44;;;;;;;0.00;0.00;;;13.10;99.90;;;;;;4849071;29;20059;-79
2021/08/17 05:11:11;;;;;;;0.00;0.00;;;13.10;99.90;;;;;;4863632;29;20042;-78
2021/08/17 05:13:38;;;;;;;0.00;0.00;;;13.10;99.90;;;;;;4879131;29;20048;-81
2021/08/17 05:16:04;;;;;;;0.00;0.00;;;13.20;99.90;;;;;;4863632;29;20486;-81
2021/08/17 05:18:34;;;;;;;0.00;0.00;;;13.20;99.90;;;;;;4878982;29;20046;-81
2021/08/17 05:21:01;;;;;;;0.00;0.00;;;13.20;99.90;;;;;;4864233;29;20124;-79
2021/08/17 05:23:28;;;;;;;0.00;0.00;;;13.20;99.90;;;;;;4863720;29;20064;-80
2021/08/17 05:25:56;;;;;;;0.00;0.00;;;13.40;99.90;;;;;;4848694;29;20486;-80
2021/08/17 05:28:23;;;;;;;0.00;0.00;;;13.40;99.90;;;;;;4863415;29;20037;-79
2021/08/17 05:30:50;;;;;;;0.00;0.00;;;13.50;99.90;;;;;;4863865;29;20093;-80
2021/08/17 05:33:17;;;;;;;0.00;0.00;;;13.50;99.90;;;;;;4863435;29;20081;-81
2021/08/17 05:35:44;;;;;;;0.00;0.00;;;13.60;99.90;;;;;;4863598;29;20041;-82
2021/08/17 05:38:11;;;;;;;0.00;0.00;;;13.60;99.90;;;;;;4863288;29;20042;-79
2021/08/17 05:40:39;;;;;;;0.00;0.00;;;13.60;99.90;;;;;;4863741;29;20178;-79
2021/08/17 05:43:05;;;;;;;0.00;0.00;;;13.60;99.90;;;;;;4847848;29;20554;-83
2021/08/17 05:45:33;;;;;;;0.00;0.00;;;13.60;99.90;;;;;;4863457;29;20132;-80
2021/08/17 05:48:00;;;;;;;0.00;0.00;;;13.60;99.90;;;;;;4861734;29;20045;-80
2021/08/17 05:50:27;;;;;;;0.00;0.00;;;13.70;99.90;;;;;;4852095;29;20045;-83
2021/08/17 05:52:54;;;;;;;0.00;0.00;;;13.70;99.90;;;;;;4861982;29;20411;-82
2021/08/17 05:55:21;;;;;;;0.00;0.00;;;13.80;99.90;;;;;;4845740;29;20079;-85
2021/08/17 05:57:56;;;;;;;0.00;0.00;;;13.80;99.90;;;;;;4845315;29;20045;-85
2021/08/17 06:00:23;;;;;;;0.00;0.00;;;13.90;99.90;;;;;;4845479;29;20501;-87
2021/08/17 06:02:50;;;;;;;0.03;0.03;;;13.90;99.90;;;;;;4860563;29;20121;-86
2021/08/17 06:05:17;;;;;;;0.00;0.00;;;14.00;99.90;;;;;;4878108;29;20050;-85
2021/08/17 06:07:46;;;;;;;0.00;0.00;;;14.00;99.90;;;;;;4878216;29;20042;-86
2021/08/17 06:10:14;;;;;;;0.00;0.00;;;14.00;99.90;;;;;;4864026;29;20049;-89
2021/08/17 06:12:42;;;;;;;0.00;0.00;;;14.00;99.90;;;;;;4848861;29;20053;-88
2021/08/17 06:15:10;;;;;;;0.00;0.00;;;14.10;99.90;;;;;;4878821;29;20102;-84
2021/08/17 06:17:37;;;;;;;0.00;0.00;;;14.10;99.90;;;;;;4863315;29;20159;-82
2021/08/17 06:20:08;;;;;;;0.00;0.00;;;14.10;99.90;;;;;;4878615;29;20037;-87
2021/08/17 06:22:35;;;;;;;0.10;0.10;;;14.10;99.90;;;;;;4849259;29;20046;-90
2021/08/17 06:25:02;;;;;;;0.00;0.00;;;14.20;99.90;;;;;;4878086;29;20098;-82
2021/08/17 06:27:30;;;;;;;0.00;0.00;;;14.30;99.90;;;;;;4877844;29;20044;-83
2021/08/17 06:29:57;;;;;;;0.00;0.00;;;14.30;99.90;;;;;;4848679;29;20076;-84
2021/08/17 06:32:24;;;;;;;0.00;0.00;;;14.30;99.90;;;;;;4862874;29;20450;-83
2021/08/17 06:34:50;;;;;;;0.00;0.00;;;14.40;99.90;;;;;;4877904;29;20113;-83
2021/08/17 06:37:17;;;;;;;0.00;0.00;;;14.50;99.90;;;;;;4862776;29;20060;-84
2021/08/17 06:39:44;;;;;;;0.10;0.10;;;14.50;99.90;;;;;;4862890;29;20042;-81
2021/08/17 06:42:11;;;;;;;0.00;0.00;;;14.60;99.90;;;;;;4847370;29;20064;-88
2021/08/17 06:44:38;;;;;;;0.00;0.00;;;14.70;99.90;;;;;;4863011;29;20049;-84
2021/08/17 06:47:05;;;;;;;0.00;0.00;;;14.70;99.90;;;;;;4863026;29;20120;-82
2021/08/17 06:49:32;;;;;;;0.10;0.10;;;14.70;99.90;;;;;;4863068;29;20033;-91
2021/08/17 06:51:59;;;;;;;0.00;0.00;;;14.60;99.90;;;;;;4863258;29;20044;-84
2021/08/17 06:54:25;;;;;;;0.00;0.00;;;14.60;99.90;;;;;;4877368;29;20466;-84
2021/08/17 06:56:52;;;;;;;0.00;0.00;;;14.60;99.90;;;;;;4862804;29;20038;-87
2021/08/17 06:59:19;;;;;;;0.00;0.00;;;14.60;99.90;;;;;;4862568;29;20045;-88
2021/08/17 07:01:46;;;;;;;0.00;0.00;;;14.60;99.90;;;;;;4863242;29;20052;-91
2021/08/17 07:04:13;;;;;;;0.00;0.00;;;14.60;99.90;;;;;;4878368;29;20053;-87
2021/08/17 07:06:39;;;;;;;0.00;0.00;;;14.60;99.90;;;;;;4862713;29;20041;-86
2021/08/17 07:09:07;;;;;;;0.00;0.00;;;14.50;99.90;;;;;;4862857;29;20479;-87
2021/08/17 07:11:34;;;;;;;0.00;0.00;;;14.60;99.90;;;;;;4847800;29;20060;-87
2021/08/17 07:14:00;;;;;;;0.00;0.00;;;14.50;99.90;;;;;;4863212;29;20045;-86
2021/08/17 07:16:27;;;;;;;0.00;0.00;;;14.50;99.90;;;;;;4862338;29;20045;-85
2021/08/17 07:18:54;;;;;;;0.15;0.15;;;14.50;99.90;;;;;;4878805;29;20582;-85
2021/08/17 07:21:21;;;;;;;0.00;0.00;;;14.60;99.90;;;;;;4881546;29;20494;-85
2021/08/17 07:23:48;;;;;;;0.00;0.00;;;14.60;99.90;;;;;;4866420;29;20045;-87
2021/08/17 07:26:17;;;;;;;0.00;0.00;;;14.60;99.90;;;;;;4881798;29;20046;-84
2021/08/17 07:28:44;;;;;;;0.10;0.10;;;14.70;99.90;;;;;;4866364;29;20041;-85
2021/08/17 07:31:10;;;;;;;0.00;0.00;;;14.70;99.90;;;;;;4862720;29;20045;-85
2021/08/17 07:33:37;;;;;;;0.00;0.00;;;14.70;99.90;;;;;;4848891;29;20042;-87
2021/08/17 07:36:04;;;;;;;0.00;0.00;;;14.80;99.90;;;;;;4862750;29;20513;-85
2021/08/17 07:38:31;;;;;;;0.00;0.00;;;14.80;99.90;;;;;;4847769;29;20049;-91
2021/08/17 07:40:58;;;;;;;0.00;0.00;;;14.90;99.90;;;;;;4846378;29;20042;-90
2021/08/17 07:43:25;;;;;;;0.00;0.00;;;15.00;99.90;;;;;;4829576;29;20053;-85
2021/08/17 07:45:52;;;;;;;0.00;0.00;;;15.00;99.90;;;;;;4844195;29;20133;-81
2021/08/17 07:48:19;;;;;;;0.00;0.00;;;15.10;99.90;;;;;;4843970;29;20051;-83
2021/08/17 07:50:45;;;;;;;0.00;0.00;;;15.20;99.90;;;;;;4843921;29;20053;-79
2021/08/17 07:53:12;;;;;;;0.00;0.00;;;15.40;99.90;;;;;;4851582;29;20038;-82
2021/08/17 07:55:39;;;;;;;0.10;0.10;;;15.50;99.90;;;;;;4850578;29;20403;-80
2021/08/17 07:58:06;;;;;;;0.00;0.00;;;15.70;99.90;;;;;;4872713;29;20122;-83
2021/08/17 08:00:33;;;;;;;0.00;0.00;;;15.80;99.90;;;;;;4852919;29;20114;-81
2021/08/17 08:03:00;;;;;;;0.00;0.00;;;15.90;99.90;;;;;;4844804;29;20038;-79
2021/08/17 08:05:27;;;;;;;0.00;0.00;;;16.00;99.90;;;;;;4843316;29;20491;-78
2021/08/17 08:07:53;;;;;;;0.17;0.17;;;16.10;99.90;;;;;;4859653;29;20110;-80
2021/08/17 08:10:21;;;;;;;0.00;0.00;;;16.00;99.90;;;;;;4843560;29;20054;-79
2021/08/17 08:12:48;;;;;;;0.00;0.00;;;16.10;99.90;;;;;;4859629;29;20042;-86
2021/08/17 08:15:15;;;;;;;0.00;0.00;;;16.20;99.90;;;;;;4828664;29;20042;-82
2021/08/17 08:17:41;;;;;;;0.00;0.00;;;16.20;99.90;;;;;;4842959;29;20492;-81
2021/08/17 08:20:09;;;;;;;0.00;0.00;;;16.20;99.90;;;;;;4828321;29;20475;-81
2021/08/17 08:22:36;;;;;;;0.10;0.10;;;16.20;99.90;;;;;;4843003;29;20042;-79
2021/08/17 08:25:04;;;;;;;0.25;0.20;;;16.30;99.90;;;;;;4843450;29;20050;-82
2021/08/17 08:27:30;;;;;;;0.00;0.00;;;16.30;99.90;;;;;;4842919;29;20042;-80
2021/08/17 08:29:57;;;;;;;0.00;0.00;;;16.40;99.90;;;;;;4842641;29;20544;-86
2021/08/17 08:32:24;;;;;;;0.00;0.00;;;16.50;99.90;;;;;;4843293;29;20506;-87
2021/08/17 08:34:51;;;;;;;0.55;0.55;;;16.50;99.90;;;;;;4828701;29;20039;-86
2021/08/17 08:37:18;;;;;;;0.05;0.05;;;16.50;99.90;;;;;;4843731;29;20042;-87
2021/08/17 08:39:45;;;;;;;0.00;0.00;;;16.50;99.90;;;;;;4830249;29;20049;-88
2021/08/17 08:42:12;;;;;;;0.10;0.10;;;16.40;99.90;;;;;;4853214;29;20094;-83
2021/08/17 08:44:39;;;;;;;0.00;0.00;;;16.40;99.90;;;;;;4844041;29;20043;-85
2021/08/17 08:47:06;;;;;;;0.70;0.38;;;16.40;99.90;;;;;;4868410;29;20042;-86
2021/08/17 08:49:37;;;;;;;0.00;0.00;;;16.30;99.90;;;;;;4844930;29;20490;-85
2021/08/17 08:52:04;;;;;;;0.00;0.00;;;16.30;99.90;;;;;;4845193;29;20038;-85
2021/08/17 08:54:31;;;;;;;0.05;0.05;;;16.30;99.90;;;;;;4842483;29;20048;-88
2021/08/17 08:56:57;;;;;;;0.20;0.10;;;16.30;99.90;;;;;;4843172;29;20046;-85
2021/08/17 08:59:24;;;;;;;0.00;0.00;;;16.30;99.90;;;;;;4842722;29;20445;-86
2021/08/17 09:02:04;;;;;;;0.10;0.10;;;16.30;99.90;;;;;;4842306;29;20042;-84
2021/08/17 09:04:30;;;;;;;0.47;0.40;;;16.30;99.90;;;;;;4842280;29;20129;-81
2021/08/17 09:06:57;;;;;;;0.10;0.10;;;16.40;99.90;;;;;;4842401;29;20543;-84
2021/08/17 09:09:24;;;;;;;0.00;0.00;;;16.40;99.90;;;;;;4827671;29;20055;-84
2021/08/17 09:11:53;;;;;;;0.25;0.22;;;16.40;99.90;;;;;;4841842;29;20042;-80
2021/08/17 09:14:29;;;;;;;0.75;0.20;;;16.50;99.90;;;;;;4858669;29;20034;-82
2021/08/17 09:16:58;;;;;;;;;;;16.50;99.90;;;;;;4842764;29;20812;-84
2021/08/17 09:19:27;;;;;;;0.00;0.00;;;16.50;99.90;;;;;;4858588;29;19920;-83
2021/08/17 09:21:57;;;;;;;0.00;0.00;;;16.60;99.90;;;;;;4841770;29;20441;-79
2021/08/17 09:24:33;;;;;;;0.00;0.00;;;16.80;99.90;;;;;;4841996;29;20506;-81
2021/08/17 09:27:12;;;;;;;0.00;0.00;;;16.80;99.90;;;;;;4842371;29;20411;-83
2021/08/17 09:29:41;;;;;;;0.85;0.20;;;16.80;99.90;;;;;;4841742;29;20445;-85
2021/08/17 09:32:15;;;;;;;0.00;0.00;;;17.00;99.90;;;;;;4858378;29;20042;-79
2021/08/17 09:34:47;;;;;;;0.10;0.10;;;17.10;99.90;;;;;;4841491;29;20043;-77
2021/08/17 09:42:51;;;;;;;0.00;0.00;;;17.60;99.90;;;;;;736064;24;21674;-88
2021/08/17 09:45:18;;;;;;;0.00;0.00;;;17.80;99.90;;;;;;4864351;29;20065;-93
2021/08/17 09:47:54;;;;;;;0.05;0.05;;;18.00;99.90;;;;;;4864577;29;20067;-90
2021/08/17 09:50:30;;;;;;;0.10;0.10;;;17.90;99.90;;;;;;4879405;29;20041;-88
2021/08/17 09:53:17;;;;;;;0.95;0.50;;;17.90;99.90;;;;;;4864866;29;20094;-94
2021/08/17 09:55:55;;;;;;;0.10;0.10;;;17.90;99.90;;;;;;4879359;29;20053;-93
2021/08/17 09:58:37;;;;;;;1.25;0.20;;;17.90;99.90;;;;;;4879125;29;20482;-90
2021/08/17 10:01:06;;;;;;;0.00;0.00;;;17.90;99.90;;;;;;4894316;29;20185;-90
2021/08/17 10:03:40;;;;;;;0.32;0.25;;;17.90;99.90;;;;;;4866531;29;20074;-90
2021/08/17 10:06:07;;;;;;;0.80;0.08;;;18.00;99.90;;;;;;4849401;29;20049;-89
2021/08/17 10:08:35;;;;;;;0.10;0.10;;;17.90;99.90;;;;;;4848583;29;20048;-88
2021/08/17 10:11:03;;;;;;;0.20;0.20;;;17.90;99.90;;;;;;4859714;29;20440;-89
2021/08/17 10:13:31;;;;;;;0.00;0.00;;;17.90;99.90;;;;;;4850458;29;20041;-89
2021/08/17 10:15:59;;;;;;;0.20;0.20;;;18.00;99.90;;;;;;4859075;29;20046;-86
2021/08/17 10:18:30;;;;;;;0.00;0.00;;;17.80;99.90;;;;;;4860615;29;20372;-88
2021/08/17 10:21:02;;;;;;;0.00;0.00;;;17.70;99.90;;;;;;4861002;29;20430;-91
2021/08/17 10:23:30;;;;;;;0.10;0.10;;;17.50;99.90;;;;;;4876480;29;20133;-89
2021/08/17 10:25:59;;;;;;;0.32;0.28;;;17.40;99.90;;;;;;4860779;29;20042;-89
2021/08/17 10:28:36;;;;;;;0.00;0.00;;;17.30;99.90;;;;;;4845086;29;20436;-89
2021/08/17 10:31:11;;;;;;;0.35;0.30;;;17.20;99.90;;;;;;4883884;29;20033;-95
2021/08/17 10:34:08;;;;;;;0.13;0.13;;;17.10;99.90;;;;;;4856540;29;20046;-94
2021/08/17 10:36:43;;;;;;;0.57;0.15;;;17.10;99.90;;;;;;4844970;29;20081;-91
2021/08/17 10:39:16;;;;;;;0.13;0.10;;;17.00;99.90;;;;;;4853294;29;20487;-91
2021/08/17 10:41:48;;;;;;;0.90;0.30;;;17.00;99.90;;;;;;4843887;29;20043;-91
2021/08/17 10:44:18;;;;;;;0.20;0.10;;;17.00;99.90;;;;;;4860119;29;20106;-92
2021/08/17 10:46:48;;;;;;;0.00;0.00;;;17.10;99.90;;;;;;4860306;29;20442;-91
2021/08/17 10:49:41;;;;;;;0.50;0.20;;;17.10;99.90;;;;;;4860442;29;20038;-89
2021/08/17 10:52:11;;;;;;;0.00;0.00;;;17.20;99.90;;;;;;4860562;29;20046;-90
2021/08/17 10:54:39;;;;;;;0.47;0.38;;;17.20;99.90;;;;;;4861979;29;20435;-90
2021/08/17 10:57:16;;;;;;;0.08;0.05;;;17.20;99.90;;;;;;4864149;29;20053;-90
2021/08/17 10:59:46;;;;;;;0.52;0.32;;;17.40;99.90;;;;;;4849013;29;20403;-91
2021/08/17 11:02:14;;;;;;;0.77;0.40;;;17.40;99.90;;;;;;4878979;29;20095;-87
2021/08/17 11:04:42;;;;;;;0.75;0.55;;;17.50;99.90;;;;;;4848521;29;20068;-90
2021/08/17 11:07:32;;;;;;;0.47;0.40;;;17.40;99.90;;;;;;4863943;29;20042;-91
2021/08/17 11:10:02;;;;;;;0.00;0.00;;;17.40;99.90;;;;;;4848556;29;20083;-90
2021/08/17 11:12:33;;;;;;;0.13;0.13;;;17.30;99.90;;;;;;4863178;29;20048;-88
2021/08/17 11:15:00;;;;;;;0.13;0.13;;;17.30;99.90;;;;;;4863757;29;20475;-89
2021/08/17 11:17:28;;;;;;;0.10;0.10;;;17.20;99.90;;;;;;4848179;29;20129;-88
2021/08/17 11:19:55;;;;;;;0.63;0.30;;;17.20;99.90;;;;;;4848466;29;20042;-89
2021/08/17 11:22:28;;;;;;;0.00;0.00;;;17.20;99.90;;;;;;4848508;29;20092;-88
2021/08/17 11:24:57;;;;;;;1.08;0.52;;;17.20;99.90;;;;;;4848380;29;20083;-89
2021/08/17 11:27:30;;;;;;;0.08;0.08;;;17.10;99.90;;;;;;4863239;29;20046;-89
2021/08/17 11:30:00;;;;;;;0.32;0.30;;;17.20;99.90;;;;;;4863338;29;20046;-91
2021/08/17 11:32:37;;;;;;;0.15;0.15;;;17.20;99.90;;;;;;4863379;29;20141;-90
2021/08/17 11:35:18;;;;;;;0.30;0.30;;;17.20;99.90;;;;;;4851620;29;20034;-93
2021/08/17 11:37:48;;;;;;;0.47;0.30;;;17.20;99.90;;;;;;4864486;29;20042;-91
2021/08/17 11:40:17;;;;;;;0.00;0.00;;;17.30;99.90;;;;;;4864617;29;20050;-91
2021/08/17 11:42:47;;;;;;;0.10;0.10;;;17.30;99.90;;;;;;4863082;29;20048;-92
2021/08/17 11:45:26;;;;;;;1.20;0.30;;;17.20;99.90;;;;;;4858388;29;20125;-94
2021/08/17 11:47:55;;;;;;;0.00;0.00;;;17.30;99.90;;;;;;4862842;29;20042;-91
2021/08/17 11:50:23;;;;;;;0.17;0.10;;;17.30;99.90;;;;;;4862887;29;20498;-94
2021/08/17 11:52:56;;;;;;;0.00;0.00;;;17.30;99.90;;;;;;4862987;29;20062;-91
2021/08/17 11:55:25;;;;;;;0.10;0.10;;;17.30;99.90;;;;;;4855698;29;20050;-93
2021/08/17 11:57:53;;;;;;;0.22;0.20;;;17.40;99.90;;;;;;4845068;29;20058;-90
2021/08/17 12:00:25;;;;;;;0.00;0.00;;;17.40;99.90;;;;;;4847474;29;20038;-91
2021/08/17 12:02:55;;;;;;;0.10;0.10;;;17.30;99.90;;;;;;4844569;29;20098;-93
2021/08/17 12:05:25;;;;;;;0.60;0.40;;;17.30;99.90;;;;;;4844013;29;20410;-91
2021/08/17 12:07:54;;;;;;;0.00;0.00;;;17.30;99.90;;;;;;4879105;29;20041;-92
2021/08/17 12:10:32;;;;;;;0.00;0.00;;;17.30;99.90;;;;;;4847966;29;20042;-92
2021/08/17 12:12:59;;;;;;;0.20;0.10;;;17.30;99.90;;;;;;4847815;29;20041;-91
2021/08/17 12:15:27;;;;;;;0.00;0.00;;;17.20;99.90;;;;;;4861873;29;20113;-88
2021/08/17 12:18:02;;;;;;;0.00;0.00;;;17.20;99.90;;;;;;4872483;29;20095;-86
2021/08/17 12:20:30;;;;;;;0.63;0.30;;;17.10;99.90;;;;;;4862314;29;20044;-89
2021/08/17 12:22:57;;;;;;;0.00;0.00;;;17.10;99.90;;;;;;4861175;29;20044;-89
2021/08/17 12:25:27;;;;;;;0.13;0.13;;;17.10;99.90;;;;;;4847657;29;20482;-90
2021/08/17 12:27:59;;;;;;;0.63;0.30;;;17.10;99.90;;;;;;4862130;29;20129;-91
2021/08/17 12:30:28;;;;;;;0.30;0.10;;;17.10;99.90;;;;;;4862505;29;20467;-85
2021/08/17 12:32:55;;;;;;;0.32;0.20;;;17.10;99.90;;;;;;4861552;29;20042;-88
2021/08/17 12:35:36;;;;;;;0.63;0.20;;;17.10;99.90;;;;;;4847803;29;20045;-87
2021/08/17 12:38:15;;;;;;;0.30;0.25;;;17.10;99.90;;;;;;4843998;29;20042;-90
2021/08/17 12:40:49;;;;;;;0.30;0.20;;;17.10;99.90;;;;;;4846798;29;20082;-89
2021/08/17 12:43:19;;;;;;;0.00;0.00;;;17.10;99.90;;;;;;4861937;29;20133;-89
2021/08/17 12:45:47;;;;;;;0.00;0.00;;;17.00;99.90;;;;;;4861702;29;20398;-91
2021/08/17 12:48:18;;;;;;;0.22;0.22;;;17.10;99.90;;;;;;4831484;29;20050;-89
2021/08/17 12:50:47;;;;;;;0.00;0.00;;;17.10;99.90;;;;;;4846296;29;20034;-89
2021/08/17 12:53:23;;;;;;;0.00;0.00;;;17.10;99.90;;;;;;4861611;29;20033;-91
2021/08/17 12:55:51;;;;;;;0.00;0.00;;;17.10;99.90;;;;;;4861196;29;20049;-90
2021/08/17 12:58:20;;;;;;;0.00;0.00;;;17.20;99.90;;;;;;4846572;29;20070;-91
2021/08/17 13:00:47;;;;;;;0.20;0.20;;;17.20;99.90;;;;;;4861046;29;20033;-90